Main page
METAR-TAF:

METAR-TAF

Airports :

Beaver Creek Airport

Beaver Creek, Yukon, Canada

latitude: 62-25N, longitude: 140-52W, elevation: 649 m

Current weather observation

The report was made 20 minutes ago, at 20:00 UTC
Wind 5 kt from the East/Southeast
Temperature 21°C
Humidity 38%
Pressure 1013 hPa
Visibility: 32.2 km
Scattered clouds at a height of 5000 ft, Cumulonimbus.
Broken clouds at a height of 12000 ft

METAR: CYXQ 192000Z 11005KT 20SM SCT050CB BKN120 21/06 A2992 RMK CB4AC2 /DIST SH S & W/ SLP144 DENSITY ALT 3300FT

Time: 13:20 (20:20 UTC)


TAF: missing

Weather observations and forecasts of more than 4000 airports (METAR and TAF reports).

The available stations are represented by yellow and red dots on the map.

Hover mouse over dot to see the name of the station.

Then click to see weather observations and forecasts.

To change the map : click on the green buttons with a black cross to zoom in, on the green button with a dash to zoom out, or on the green arrows for adjacent maps.


METAR-TAF: